createdAt,value
2023-10-10T00:02:12.508Z,954.99
2023-10-10T00:04:38.958Z,955.01
2023-10-10T00:07:05.369Z,955.01
2023-10-10T00:09:31.760Z,954.96
2023-10-10T00:11:58.175Z,954.99
2023-10-10T00:14:24.630Z,954.94
2023-10-10T00:16:50.947Z,954.89
2023-10-10T00:19:17.425Z,954.88
2023-10-10T00:21:43.811Z,954.80
2023-10-10T00:24:10.294Z,954.79
2023-10-10T00:26:36.674Z,954.87
2023-10-10T00:29:03.066Z,954.82
2023-10-10T00:31:29.462Z,954.83
2023-10-10T00:33:55.911Z,954.78
2023-10-10T00:36:22.285Z,954.83
2023-10-10T00:38:48.787Z,954.78
2023-10-10T00:41:15.155Z,954.84
2023-10-10T00:43:41.585Z,954.80
2023-10-10T00:46:07.987Z,954.81
2023-10-10T00:48:34.451Z,954.75
2023-10-10T00:51:00.793Z,954.78
2023-10-10T00:53:27.394Z,954.75
2023-10-10T00:55:53.699Z,954.71
2023-10-10T00:58:20.107Z,954.67
2023-10-10T01:00:46.536Z,954.75
2023-10-10T01:03:13.060Z,954.77
2023-10-10T01:05:39.342Z,954.83
2023-10-10T01:08:05.741Z,954.75
2023-10-10T01:10:32.202Z,954.76
2023-10-10T01:12:58.628Z,954.76
2023-10-10T01:15:24.983Z,954.62
2023-10-10T01:17:51.539Z,954.70
2023-10-10T01:20:17.820Z,954.61
2023-10-10T01:22:44.179Z,954.68
2023-10-10T01:25:10.602Z,954.60
2023-10-10T01:27:37.064Z,954.74
2023-10-10T01:30:03.461Z,954.81
2023-10-10T01:32:29.957Z,954.83
2023-10-10T01:34:56.262Z,954.85
2023-10-10T01:37:22.778Z,954.88
2023-10-10T01:39:49.151Z,954.91
2023-10-10T01:42:15.591Z,954.94
2023-10-10T01:44:42.041Z,954.95
2023-10-10T01:47:08.437Z,954.81
2023-10-10T01:49:37.162Z,954.98
2023-10-10T01:52:03.633Z,954.88
2023-10-10T01:54:29.992Z,954.86
2023-10-10T01:56:56.488Z,954.81
2023-10-10T01:59:22.934Z,954.83
2023-10-10T02:01:49.404Z,954.86
2023-10-10T02:04:15.683Z,954.82
2023-10-10T02:06:42.109Z,954.82
2023-10-10T02:09:08.502Z,954.82
2023-10-10T02:11:34.961Z,954.88
2023-10-10T02:14:01.338Z,954.99
2023-10-10T02:16:27.722Z,954.90
2023-10-10T02:18:54.045Z,954.90
2023-10-10T02:21:20.511Z,954.86
2023-10-10T02:23:46.909Z,954.84
2023-10-10T02:26:13.405Z,954.90
2023-10-10T02:28:39.685Z,954.85
2023-10-10T02:31:06.225Z,954.83
2023-10-10T02:33:32.679Z,954.77
2023-10-10T02:35:59.040Z,954.79
2023-10-10T02:38:25.447Z,954.84
2023-10-10T02:40:51.861Z,954.75
2023-10-10T02:43:18.265Z,954.62
2023-10-10T02:45:44.692Z,954.59
2023-10-10T02:48:11.176Z,954.59
2023-10-10T02:50:37.723Z,954.58
2023-10-10T02:53:04.119Z,954.44
2023-10-10T02:55:30.621Z,954.52
2023-10-10T02:57:57.100Z,954.55
2023-10-10T03:00:23.660Z,954.60
2023-10-10T03:02:50.122Z,954.74
2023-10-10T03:05:17.012Z,954.72
2023-10-10T03:07:42.859Z,954.76
2023-10-10T03:10:09.302Z,954.79
2023-10-10T03:12:35.746Z,954.79
2023-10-10T03:15:02.252Z,954.79
2023-10-10T03:17:28.788Z,954.82
2023-10-10T03:19:55.109Z,954.85
2023-10-10T03:22:21.467Z,954.83
2023-10-10T03:24:47.896Z,954.81
2023-10-10T03:27:14.281Z,954.86
2023-10-10T03:29:40.792Z,954.96
2023-10-10T03:32:07.180Z,955.01
2023-10-10T03:34:33.555Z,955.06
2023-10-10T03:36:59.912Z,955.03
2023-10-10T03:39:26.401Z,955.12
2023-10-10T03:41:52.721Z,955.16
2023-10-10T03:44:19.265Z,955.16
2023-10-10T03:46:45.581Z,955.18
2023-10-10T03:49:12.093Z,955.14
2023-10-10T03:51:38.439Z,955.19
2023-10-10T03:54:04.962Z,955.21
2023-10-10T03:56:31.402Z,955.21
2023-10-10T03:58:57.859Z,955.22
2023-10-10T04:01:24.293Z,955.17
2023-10-10T04:03:50.773Z,955.27
2023-10-10T04:06:17.270Z,955.24
2023-10-10T04:08:43.822Z,955.20
2023-10-10T04:11:10.169Z,955.19
2023-10-10T04:13:36.626Z,955.20
2023-10-10T04:16:02.994Z,955.14
2023-10-10T04:18:29.513Z,955.16
2023-10-10T04:20:55.931Z,955.16
2023-10-10T04:23:22.437Z,955.13
2023-10-10T04:25:48.791Z,955.20
2023-10-10T04:28:15.229Z,955.21
2023-10-10T04:30:41.622Z,955.21
2023-10-10T04:33:08.143Z,955.18
2023-10-10T04:35:34.490Z,955.23
2023-10-10T04:38:01.054Z,955.27
2023-10-10T04:40:27.323Z,955.26
2023-10-10T04:42:53.766Z,955.26
2023-10-10T04:45:20.148Z,955.30
2023-10-10T04:47:46.716Z,955.33
2023-10-10T04:50:13.038Z,955.23
2023-10-10T04:52:39.435Z,955.25
2023-10-10T04:55:05.795Z,955.27
2023-10-10T04:57:32.335Z,955.28
2023-10-10T04:59:58.749Z,955.34
2023-10-10T05:02:25.267Z,955.40
2023-10-10T05:04:51.519Z,955.39
2023-10-10T05:07:18.063Z,955.40
2023-10-10T05:09:44.453Z,955.46
2023-10-10T05:12:10.949Z,955.44
2023-10-10T05:14:37.422Z,955.52
2023-10-10T05:17:03.783Z,955.58
2023-10-10T05:19:30.115Z,955.59
2023-10-10T05:21:56.594Z,955.56
2023-10-10T05:24:22.982Z,955.54
2023-10-10T05:26:49.443Z,955.52
2023-10-10T05:29:15.811Z,955.55
2023-10-10T05:31:42.352Z,955.63
2023-10-10T05:34:08.691Z,955.57
2023-10-10T05:36:35.162Z,955.65
2023-10-10T05:39:01.514Z,955.68
2023-10-10T05:41:28.110Z,955.76
2023-10-10T05:43:54.454Z,955.71
2023-10-10T05:46:20.913Z,955.69
2023-10-10T05:48:47.268Z,955.70
2023-10-10T05:51:13.911Z,955.70
2023-10-10T05:53:40.554Z,955.74
2023-10-10T05:56:07.079Z,955.65
2023-10-10T05:58:33.412Z,955.58
2023-10-10T06:01:00.083Z,955.56
2023-10-10T06:03:26.473Z,955.60
2023-10-10T06:05:52.957Z,955.62
2023-10-10T06:08:19.364Z,955.68
2023-10-10T06:10:45.717Z,955.62
2023-10-10T06:13:12.161Z,955.63
2023-10-10T06:15:38.606Z,955.70
2023-10-10T06:18:05.076Z,955.77
2023-10-10T06:20:31.489Z,955.72
2023-10-10T06:22:57.904Z,955.82
2023-10-10T06:25:24.291Z,955.84
2023-10-10T06:27:50.706Z,955.85
2023-10-10T06:30:17.101Z,955.89
2023-10-10T06:32:43.752Z,955.97
2023-10-10T06:35:10.097Z,955.87
2023-10-10T06:37:36.471Z,955.83
2023-10-10T06:40:02.912Z,955.69
2023-10-10T06:42:29.492Z,955.86
2023-10-10T06:44:55.748Z,955.85
2023-10-10T06:47:22.166Z,955.83
2023-10-10T06:49:48.663Z,955.81
2023-10-10T06:52:15.092Z,955.90
2023-10-10T06:54:41.539Z,955.96
2023-10-10T06:57:07.955Z,955.87
2023-10-10T06:59:34.417Z,956.01
2023-10-10T07:02:00.857Z,955.91
2023-10-10T07:04:27.382Z,955.99
2023-10-10T07:06:53.780Z,955.95
2023-10-10T07:09:20.194Z,956.09
2023-10-10T07:11:46.655Z,956.02
2023-10-10T07:14:13.313Z,956.05
2023-10-10T07:16:39.729Z,956.10
2023-10-10T07:19:06.165Z,956.07
2023-10-10T07:21:32.568Z,956.10
2023-10-10T07:23:59.134Z,956.03
2023-10-10T07:26:25.587Z,955.97
2023-10-10T07:28:51.986Z,956.01
2023-10-10T07:31:18.465Z,956.03
2023-10-10T07:33:44.856Z,956.08
2023-10-10T07:36:11.255Z,955.95
2023-10-10T07:38:37.750Z,956.05
2023-10-10T07:41:04.043Z,955.97
2023-10-10T07:43:30.482Z,956.04
2023-10-10T07:45:56.920Z,956.07
2023-10-10T07:48:23.353Z,956.12
2023-10-10T07:50:49.794Z,956.09
2023-10-10T07:53:16.232Z,956.28
2023-10-10T07:55:42.565Z,956.13
2023-10-10T07:58:09.094Z,956.14
2023-10-10T08:00:35.506Z,956.24
2023-10-10T08:03:02.126Z,956.28
2023-10-10T08:05:28.552Z,956.24
2023-10-10T08:07:55.134Z,956.21
2023-10-10T08:10:21.558Z,956.26
2023-10-10T08:12:47.962Z,956.21
2023-10-10T08:15:14.356Z,956.26
2023-10-10T08:17:40.920Z,956.25
2023-10-10T08:20:07.234Z,956.23
2023-10-10T08:22:33.641Z,956.21
2023-10-10T08:25:00.057Z,956.31
2023-10-10T08:27:26.488Z,956.32
2023-10-10T08:29:52.935Z,956.34
2023-10-10T08:32:19.382Z,956.37
2023-10-10T08:34:45.695Z,956.34
2023-10-10T08:37:12.236Z,956.38
2023-10-10T08:39:38.663Z,956.28
2023-10-10T08:42:05.097Z,956.28
2023-10-10T08:44:31.471Z,956.13
2023-10-10T08:46:57.895Z,956.21
2023-10-10T08:49:24.328Z,956.25
2023-10-10T08:51:50.771Z,956.29
2023-10-10T08:54:18.111Z,956.34
2023-10-10T08:56:43.648Z,956.20
2023-10-10T08:59:10.152Z,956.32
2023-10-10T09:01:36.594Z,956.38
2023-10-10T09:04:03.039Z,956.35
2023-10-10T09:06:29.642Z,956.37
2023-10-10T09:08:56.056Z,956.48
2023-10-10T09:11:22.567Z,956.48
2023-10-10T09:13:48.863Z,956.49
2023-10-10T09:16:15.393Z,956.43
2023-10-10T09:18:41.814Z,956.49
2023-10-10T09:21:08.324Z,956.39
2023-10-10T09:23:34.721Z,956.46
2023-10-10T09:26:01.198Z,956.38
2023-10-10T09:28:27.654Z,956.49
2023-10-10T09:30:54.197Z,956.39
2023-10-10T09:33:20.711Z,956.49
2023-10-10T09:35:47.308Z,956.50
2023-10-10T09:38:13.629Z,956.46
2023-10-10T09:40:40.118Z,956.48
2023-10-10T09:43:06.451Z,956.55
2023-10-10T09:45:32.867Z,956.42
2023-10-10T09:47:59.310Z,956.49
2023-10-10T09:50:25.757Z,956.47
2023-10-10T09:52:52.188Z,956.34
2023-10-10T09:55:18.556Z,956.32
2023-10-10T09:57:44.891Z,956.31
2023-10-10T10:00:23.858Z,956.22
2023-10-10T10:02:37.816Z,956.16
2023-10-10T10:05:04.252Z,956.18
2023-10-10T10:07:30.728Z,956.12
2023-10-10T10:09:57.190Z,956.12
2023-10-10T10:12:23.557Z,956.10
2023-10-10T10:14:50.083Z,956.14
2023-10-10T10:17:16.627Z,956.10
2023-10-10T10:19:42.960Z,956.11
2023-10-10T10:22:09.489Z,956.16
2023-10-10T10:24:35.867Z,956.12
2023-10-10T10:27:02.440Z,956.10
2023-10-10T10:29:28.899Z,956.08
2023-10-10T10:31:55.426Z,956.05
2023-10-10T10:34:21.759Z,956.07
2023-10-10T10:36:48.200Z,956.03
2023-10-10T10:39:15.642Z,956.02
2023-10-10T10:41:41.069Z,956.03
2023-10-10T10:44:07.464Z,955.99
2023-10-10T10:46:33.929Z,956.03
2023-10-10T10:49:00.256Z,955.95
2023-10-10T10:51:26.793Z,955.91
2023-10-10T10:53:53.313Z,955.90
2023-10-10T10:56:19.837Z,955.91
2023-10-10T10:58:46.101Z,955.92
2023-10-10T11:01:12.647Z,955.98
2023-10-10T11:03:39.003Z,955.91
2023-10-10T11:06:05.537Z,955.81
2023-10-10T11:08:39.525Z,955.85
2023-10-10T11:10:58.319Z,955.84
2023-10-10T11:13:24.675Z,955.83
2023-10-10T11:15:51.215Z,955.95
2023-10-10T11:18:18.256Z,955.96
2023-10-10T11:20:44.136Z,955.97
2023-10-10T11:23:10.516Z,956.01
2023-10-10T11:25:37.022Z,955.93
2023-10-10T11:28:03.455Z,955.93
2023-10-10T11:30:30.103Z,955.87
2023-10-10T11:32:56.651Z,955.96
2023-10-10T11:35:22.996Z,955.84
2023-10-10T11:37:49.377Z,955.91
2023-10-10T11:40:15.841Z,955.93
2023-10-10T11:42:42.204Z,955.87
2023-10-10T11:45:08.790Z,955.85
2023-10-10T11:47:35.140Z,955.87
2023-10-10T11:50:01.624Z,955.89
2023-10-10T11:52:27.932Z,955.82
2023-10-10T11:54:54.421Z,955.88
2023-10-10T11:57:20.784Z,955.87
2023-10-10T11:59:47.329Z,955.88
2023-10-10T12:02:13.792Z,955.88
2023-10-10T12:04:40.092Z,955.88
2023-10-10T12:07:06.988Z,955.90
2023-10-10T12:09:33.021Z,955.90
2023-10-10T12:11:59.462Z,955.86
2023-10-10T12:14:26.040Z,955.91
2023-10-10T12:16:52.438Z,955.85
2023-10-10T12:19:18.824Z,955.93
2023-10-10T12:21:45.199Z,955.88
2023-10-10T12:24:11.743Z,955.90
2023-10-10T12:26:38.183Z,955.86
2023-10-10T12:29:04.634Z,955.86
2023-10-10T12:31:31.194Z,955.84
2023-10-10T12:33:57.684Z,955.90
2023-10-10T12:36:24.141Z,955.85
2023-10-10T12:38:50.675Z,955.83
2023-10-10T12:41:17.218Z,955.82
2023-10-10T12:43:43.600Z,955.84
2023-10-10T12:46:09.962Z,955.82
2023-10-10T12:48:36.524Z,955.82
2023-10-10T12:51:04.167Z,955.84
2023-10-10T12:53:30.938Z,955.84
2023-10-10T12:55:57.428Z,955.80
2023-10-10T12:58:23.952Z,955.85
2023-10-10T13:00:50.344Z,955.81
2023-10-10T13:03:16.915Z,955.77
2023-10-10T13:05:43.224Z,955.75
2023-10-10T13:08:09.687Z,955.79
2023-10-10T13:10:36.106Z,955.73
2023-10-10T13:13:02.677Z,955.75
2023-10-10T13:15:29.078Z,955.82
2023-10-10T13:17:55.728Z,955.86
2023-10-10T13:20:22.083Z,955.71
2023-10-10T13:22:48.588Z,955.82
2023-10-10T13:25:14.943Z,955.82
2023-10-10T13:27:41.442Z,955.76
2023-10-10T13:30:07.793Z,955.80
2023-10-10T13:32:34.375Z,955.80
2023-10-10T13:35:00.698Z,955.79
2023-10-10T13:37:27.086Z,955.75
2023-10-10T13:39:53.443Z,955.82
2023-10-10T13:42:19.936Z,955.79
2023-10-10T13:44:46.440Z,955.69
2023-10-10T13:47:12.776Z,955.78
2023-10-10T13:49:39.147Z,955.76
2023-10-10T13:52:05.691Z,955.75
2023-10-10T13:54:32.207Z,955.75
2023-10-10T13:56:58.695Z,955.76
2023-10-10T13:59:25.312Z,955.75
2023-10-10T14:01:51.850Z,955.80
2023-10-10T14:04:18.534Z,955.81
2023-10-10T14:06:44.581Z,955.81
2023-10-10T14:09:11.131Z,955.80
2023-10-10T14:11:37.606Z,955.81
2023-10-10T14:14:03.923Z,955.87
2023-10-10T14:16:30.469Z,955.84
2023-10-10T14:18:56.849Z,955.86
2023-10-10T14:21:23.276Z,955.88
2023-10-10T14:23:49.699Z,955.95
2023-10-10T14:26:16.144Z,955.91
2023-10-10T14:28:42.504Z,955.97
2023-10-10T14:31:09.049Z,955.94
2023-10-10T14:33:35.482Z,955.95
2023-10-10T14:36:01.838Z,956.01
2023-10-10T14:38:28.190Z,956.04
2023-10-10T14:40:54.635Z,956.00
2023-10-10T14:43:20.995Z,956.06
2023-10-10T14:45:47.520Z,956.05
2023-10-10T14:48:14.038Z,956.19
2023-10-10T14:50:42.593Z,956.17
2023-10-10T14:53:08.901Z,956.20
2023-10-10T14:55:35.368Z,956.20
2023-10-10T14:58:01.761Z,956.18
2023-10-10T15:00:30.617Z,956.28
2023-10-10T15:02:57.213Z,956.24
2023-10-10T15:05:23.489Z,956.31
2023-10-10T15:07:49.853Z,956.30
2023-10-10T15:10:16.282Z,956.32
2023-10-10T15:12:42.788Z,956.38
2023-10-10T15:15:09.109Z,956.45
2023-10-10T15:17:35.582Z,956.44
2023-10-10T15:20:01.902Z,956.50
2023-10-10T15:22:28.268Z,956.54
2023-10-10T15:24:54.735Z,956.56
2023-10-10T15:27:21.164Z,956.64
2023-10-10T15:29:47.763Z,956.66
2023-10-10T15:32:14.143Z,956.68
2023-10-10T15:34:42.433Z,956.72
2023-10-10T15:37:06.958Z,956.71
2023-10-10T15:39:33.355Z,956.64
2023-10-10T15:41:59.788Z,956.74
2023-10-10T15:44:27.473Z,956.80
2023-10-10T15:46:53.846Z,956.75
2023-10-10T15:49:33.536Z,956.82
2023-10-10T15:51:46.751Z,956.83
2023-10-10T15:54:13.141Z,956.90
2023-10-10T15:56:39.504Z,956.86
2023-10-10T15:59:06.039Z,956.91
2023-10-10T16:01:32.465Z,956.95
2023-10-10T16:03:58.954Z,956.90
2023-10-10T16:06:25.218Z,956.94
2023-10-10T16:08:51.733Z,956.96
2023-10-10T16:11:18.078Z,956.93
2023-10-10T16:13:45.158Z,956.94
2023-10-10T16:16:11.520Z,956.95
2023-10-10T16:18:38.083Z,957.00
2023-10-10T16:21:04.386Z,957.07
2023-10-10T16:23:30.781Z,957.11
2023-10-10T16:25:57.106Z,957.05
2023-10-10T16:28:23.630Z,957.14
2023-10-10T16:30:50.037Z,957.15
2023-10-10T16:33:16.572Z,957.08
2023-10-10T16:35:42.904Z,957.15
2023-10-10T16:38:09.291Z,957.20
2023-10-10T16:40:35.703Z,957.21
2023-10-10T16:43:02.195Z,957.21
2023-10-10T16:45:28.602Z,957.26
2023-10-10T16:47:55.066Z,957.23
2023-10-10T16:50:21.389Z,957.25
2023-10-10T16:52:56.619Z,957.24
2023-10-10T16:55:14.225Z,957.22
2023-10-10T16:57:42.982Z,957.28
2023-10-10T17:00:09.364Z,957.26
2023-10-10T17:02:35.896Z,957.33
2023-10-10T17:05:02.684Z,957.30
2023-10-10T17:07:28.678Z,957.30
2023-10-10T17:09:56.222Z,957.30
2023-10-10T17:12:22.638Z,957.30
2023-10-10T17:14:49.126Z,957.32
2023-10-10T17:17:15.530Z,957.25
2023-10-10T17:19:42.019Z,957.28
2023-10-10T17:22:08.395Z,957.34
2023-10-10T17:24:34.755Z,957.27
2023-10-10T17:27:01.234Z,957.36
2023-10-10T17:29:27.659Z,957.39
2023-10-10T17:31:54.058Z,957.40
2023-10-10T17:34:20.452Z,957.40
2023-10-10T17:36:46.882Z,957.41
2023-10-10T17:39:13.262Z,957.36
2023-10-10T17:41:39.686Z,957.44
2023-10-10T17:44:06.015Z,957.43
2023-10-10T17:46:32.490Z,957.45
2023-10-10T17:48:59.013Z,957.50
2023-10-10T17:51:25.644Z,957.46
2023-10-10T17:53:51.832Z,957.49
2023-10-10T17:56:18.125Z,957.48
2023-10-10T17:58:44.530Z,957.45
2023-10-10T18:01:11.043Z,957.47
2023-10-10T18:03:37.481Z,957.43
2023-10-10T18:06:03.848Z,957.47
2023-10-10T18:08:30.237Z,957.47
2023-10-10T18:10:56.608Z,957.50
2023-10-10T18:13:23.581Z,957.51
2023-10-10T18:15:50.048Z,957.53
2023-10-10T18:18:16.612Z,957.50
2023-10-10T18:20:43.153Z,957.59
2023-10-10T18:23:09.479Z,957.58
2023-10-10T18:25:35.930Z,957.63
2023-10-10T18:28:02.311Z,957.64
2023-10-10T18:30:28.835Z,957.67
2023-10-10T18:32:55.258Z,957.63
2023-10-10T18:35:21.663Z,957.67
2023-10-10T18:37:48.014Z,957.70
2023-10-10T18:40:14.508Z,957.72
2023-10-10T18:42:41.056Z,957.73
2023-10-10T18:45:07.637Z,957.81
2023-10-10T18:47:34.081Z,957.83
2023-10-10T18:50:00.429Z,957.79
2023-10-10T18:52:26.820Z,957.78
2023-10-10T18:54:53.420Z,957.81
2023-10-10T18:57:19.823Z,957.81
2023-10-10T18:59:46.252Z,957.88
2023-10-10T19:02:12.707Z,957.89
2023-10-10T19:04:39.323Z,957.93
2023-10-10T19:07:05.724Z,957.93
2023-10-10T19:09:32.173Z,957.95
2023-10-10T19:11:59.138Z,957.95
2023-10-10T19:14:26.127Z,958.04
2023-10-10T19:16:52.469Z,958.04
2023-10-10T19:19:19.027Z,958.04
2023-10-10T19:21:45.355Z,958.06
2023-10-10T19:24:11.820Z,958.04
2023-10-10T19:26:38.134Z,958.12
2023-10-10T19:29:04.570Z,958.15
2023-10-10T19:31:30.977Z,958.20
2023-10-10T19:33:57.431Z,958.17
2023-10-10T19:36:23.752Z,958.24
2023-10-10T19:38:50.225Z,958.17
2023-10-10T19:41:16.545Z,958.16
2023-10-10T19:43:42.971Z,958.16
2023-10-10T19:46:09.377Z,958.18
2023-10-10T19:48:35.890Z,958.21
2023-10-10T19:51:02.301Z,958.28
2023-10-10T19:53:28.785Z,958.26
2023-10-10T19:55:55.064Z,958.25
2023-10-10T19:58:22.388Z,958.30
2023-10-10T20:00:48.487Z,958.32
2023-10-10T20:03:14.993Z,958.36
2023-10-10T20:05:41.431Z,958.33
2023-10-10T20:08:07.839Z,958.40
2023-10-10T20:10:34.247Z,958.41
2023-10-10T20:13:00.681Z,958.44
2023-10-10T20:15:27.097Z,958.39
2023-10-10T20:17:53.649Z,958.38
2023-10-10T20:20:19.970Z,958.33
2023-10-10T20:22:46.443Z,958.44
2023-10-10T20:25:12.801Z,958.45
2023-10-10T20:27:39.203Z,958.47
2023-10-10T20:30:05.822Z,958.47
2023-10-10T20:32:32.337Z,958.46
2023-10-10T20:34:58.635Z,958.47
2023-10-10T20:37:25.167Z,958.46
2023-10-10T20:39:54.156Z,958.43
2023-10-10T20:42:20.564Z,958.49
2023-10-10T20:44:48.147Z,958.48
2023-10-10T20:47:14.661Z,958.50
2023-10-10T20:49:41.219Z,958.46
2023-10-10T20:52:07.761Z,958.45
2023-10-10T20:54:34.275Z,958.49
2023-10-10T20:57:00.753Z,958.51
2023-10-10T20:59:27.360Z,958.54
2023-10-10T21:01:53.761Z,958.60
2023-10-10T21:04:20.371Z,958.65
2023-10-10T21:06:46.737Z,958.66
2023-10-10T21:09:13.377Z,958.60
2023-10-10T21:11:39.719Z,958.65
2023-10-10T21:14:06.192Z,958.63
2023-10-10T21:16:32.707Z,958.72
2023-10-10T21:18:59.289Z,958.72
2023-10-10T21:21:25.695Z,958.75
2023-10-10T21:23:52.161Z,958.77
2023-10-10T21:26:18.524Z,958.75
2023-10-10T21:28:44.942Z,958.76
2023-10-10T21:31:11.462Z,958.81
2023-10-10T21:33:38.163Z,958.81
2023-10-10T21:36:04.357Z,958.84
2023-10-10T21:38:30.854Z,958.87
2023-10-10T21:40:57.204Z,958.84
2023-10-10T21:43:23.648Z,958.85
2023-10-10T21:45:50.182Z,958.87
2023-10-10T21:48:16.799Z,958.87
2023-10-10T21:50:43.134Z,958.84
2023-10-10T21:53:09.582Z,958.81
2023-10-10T21:55:35.975Z,958.81
2023-10-10T21:58:02.428Z,958.89
2023-10-10T22:00:28.776Z,958.73
2023-10-10T22:02:55.334Z,958.77
2023-10-10T22:05:21.581Z,958.75
2023-10-10T22:07:48.313Z,958.83
2023-10-10T22:10:14.634Z,958.81
2023-10-10T22:12:41.015Z,958.75
2023-10-10T22:15:07.432Z,958.76
2023-10-10T22:17:33.994Z,958.89
2023-10-10T22:20:00.375Z,958.83
2023-10-10T22:22:26.886Z,958.80
2023-10-10T22:24:53.236Z,958.75
2023-10-10T22:27:19.745Z,958.79
2023-10-10T22:29:46.179Z,958.82
2023-10-10T22:32:12.828Z,958.86
2023-10-10T22:34:39.351Z,958.89
2023-10-10T22:37:08.884Z,958.94
2023-10-10T22:39:32.174Z,958.93
2023-10-10T22:41:58.694Z,958.90
2023-10-10T22:44:25.018Z,958.93
2023-10-10T22:46:51.507Z,958.96
2023-10-10T22:49:18.025Z,959.03
2023-10-10T22:51:44.409Z,959.10
2023-10-10T22:54:10.883Z,959.10
2023-10-10T22:56:37.379Z,959.14
2023-10-10T22:59:03.787Z,959.14
2023-10-10T23:01:30.370Z,959.17
2023-10-10T23:03:56.912Z,959.23
2023-10-10T23:06:23.105Z,959.23
2023-10-10T23:08:49.567Z,959.20
2023-10-10T23:11:15.977Z,959.10
2023-10-10T23:13:42.386Z,959.15
2023-10-10T23:16:08.890Z,959.19
2023-10-10T23:18:35.346Z,959.10
2023-10-10T23:21:01.752Z,959.06
2023-10-10T23:23:28.129Z,958.96
2023-10-10T23:25:54.692Z,958.99
2023-10-10T23:28:21.051Z,958.99
2023-10-10T23:30:47.581Z,959.00
2023-10-10T23:33:14.539Z,959.00
2023-10-10T23:35:40.640Z,959.02
2023-10-10T23:38:07.139Z,958.98
2023-10-10T23:40:33.461Z,959.03
2023-10-10T23:42:59.909Z,958.99
2023-10-10T23:45:26.448Z,959.07
2023-10-10T23:47:52.806Z,959.12
2023-10-10T23:50:19.181Z,959.06
2023-10-10T23:52:45.560Z,959.05
2023-10-10T23:55:12.053Z,959.01
2023-10-10T23:57:38.438Z,959.04
